Time;durP1;ratioP1;P1;durP2;ratioP2;P2;SDS_P1;SDS_P2;PMS_P1;PMS_P2;Temp;Humidity;BMP_temperature;BMP_pressure;BME280_temperature;BME280_humidity;BME280_pressure;Samples;Min_cycle;Max_cycle;Signal;HPM_P1;HPM_P2
2022/05/21 00:00:29;;;;;;;8.52;4.05;;;10.40;99.90;;;;;;4977312;28;20083;-73
2022/05/21 00:02:54;;;;;;;8.80;4.03;;;10.30;99.90;;;;;;4977208;28;20046;-73
2022/05/21 00:05:22;;;;;;;8.52;4.20;;;10.30;99.90;;;;;;4977007;28;20125;-73
2022/05/21 00:07:48;;;;;;;7.28;4.90;;;10.30;99.90;;;;;;4976524;28;20400;-73
2022/05/21 00:10:15;;;;;;;9.70;5.95;;;10.40;99.90;;;;;;4977195;28;20051;-73
2022/05/21 00:12:42;;;;;;;10.88;5.72;;;10.40;99.90;;;;;;4977110;28;20106;-73
2022/05/21 00:15:10;;;;;;;9.40;6.05;;;10.40;99.90;;;;;;4977283;28;20423;-72
2022/05/21 00:17:36;;;;;;;13.23;8.48;;;10.40;99.90;;;;;;4976958;28;20148;-74
2022/05/21 00:20:02;;;;;;;11.50;7.40;;;10.40;99.90;;;;;;4976585;28;20214;-73
2022/05/21 00:22:28;;;;;;;12.55;7.85;;;10.40;99.90;;;;;;4976930;28;20058;-73
2022/05/21 00:24:54;;;;;;;13.65;8.77;;;10.40;99.90;;;;;;4976762;28;20050;-74
2022/05/21 00:27:19;;;;;;;14.23;9.25;;;10.40;99.90;;;;;;4975817;28;20066;-72
2022/05/21 00:29:45;;;;;;;14.88;9.23;;;10.50;99.90;;;;;;4976459;28;20055;-72
2022/05/21 00:32:11;;;;;;;13.65;9.15;;;10.40;99.90;;;;;;4976432;28;20130;-73
2022/05/21 00:34:37;;;;;;;16.33;9.57;;;10.50;99.90;;;;;;4976228;28;20051;-73
2022/05/21 00:37:04;;;;;;;16.55;9.45;;;10.40;99.90;;;;;;4976574;28;20042;-72
2022/05/21 00:39:30;;;;;;;16.10;10.65;;;10.40;99.90;;;;;;4976406;28;20043;-73
2022/05/21 00:42:02;;;;;;;18.70;10.35;;;10.40;99.90;;;;;;4977564;28;20065;-73
2022/05/21 00:44:28;;;;;;;19.02;10.75;;;10.40;99.90;;;;;;4976532;28;20047;-73
2022/05/21 00:46:54;;;;;;;16.35;11.20;;;10.40;99.90;;;;;;4976475;28;20129;-74
2022/05/21 00:49:27;;;;;;;19.60;11.82;;;10.40;99.90;;;;;;4975546;28;20161;-73
2022/05/21 00:52:03;;;;;;;19.95;11.60;;;10.40;99.90;;;;;;4975661;28;20081;-73
2022/05/21 00:54:38;;;;;;;15.15;10.23;;;10.40;99.90;;;;;;4976316;28;20047;-74
2022/05/21 00:57:16;;;;;;;20.98;11.80;;;10.40;99.90;;;;;;4976298;28;20129;-73
2022/05/21 00:59:51;;;;;;;19.70;11.45;;;10.40;99.90;;;;;;4976996;28;20046;-72
2022/05/21 01:02:39;;;;;;;17.83;11.93;;;10.40;99.90;;;;;;4976528;28;20047;-72
2022/05/21 01:05:10;;;;;;;17.55;12.13;;;10.30;99.90;;;;;;4976060;28;20043;-72
2022/05/21 01:07:41;;;;;;;21.15;12.60;;;10.40;99.90;;;;;;4975335;28;20494;-73
2022/05/21 01:10:08;;;;;;;19.83;13.63;;;10.40;99.90;;;;;;4976009;28;20447;-72
2022/05/21 01:12:40;;;;;;;19.60;13.20;;;10.40;99.90;;;;;;4976156;28;20068;-73
2022/05/21 01:15:12;;;;;;;23.88;13.77;;;10.50;99.90;;;;;;4976483;28;20050;-73
2022/05/21 01:17:38;;;;;;;20.02;12.57;;;10.50;99.90;;;;;;4976156;28;20042;-72
2022/05/21 01:20:07;;;;;;;22.02;12.85;;;10.50;99.90;;;;;;4975820;28;20068;-73
2022/05/21 01:22:42;;;;;;;23.75;13.85;;;10.50;99.90;;;;;;4974654;28;20089;-72
2022/05/21 01:25:09;;;;;;;20.70;13.50;;;10.50;99.90;;;;;;4975155;28;20047;-73
2022/05/21 01:27:35;;;;;;;22.38;14.02;;;10.50;99.90;;;;;;4974655;28;20055;-73
2022/05/21 01:30:04;;;;;;;29.20;16.92;;;10.50;99.90;;;;;;4975561;28;20058;-73
2022/05/21 01:32:29;;;;;;;32.03;17.75;;;10.50;99.90;;;;;;4976377;28;20057;-73
2022/05/21 01:34:56;;;;;;;25.00;17.02;;;10.60;99.90;;;;;;4975489;28;20039;-73
2022/05/21 01:37:22;;;;;;;30.23;17.45;;;10.60;99.90;;;;;;4974899;28;20090;-73
2022/05/21 01:39:49;;;;;;;28.20;16.25;;;10.60;99.90;;;;;;4975084;28;20464;-73
2022/05/21 01:42:14;;;;;;;28.63;16.60;;;10.70;99.90;;;;;;4974498;28;20054;-72
2022/05/21 01:44:40;;;;;;;29.63;17.48;;;10.70;99.90;;;;;;4975283;28;20073;-73
2022/05/21 01:47:08;;;;;;;28.00;16.27;;;10.80;99.90;;;;;;4974404;28;20057;-73
2022/05/21 01:49:34;;;;;;;27.17;16.63;;;10.80;99.90;;;;;;4973998;28;20089;-72
2022/05/21 01:52:01;;;;;;;31.23;16.65;;;10.80;99.90;;;;;;4975255;28;20121;-73
2022/05/21 01:54:27;;;;;;;29.75;17.75;;;10.80;99.90;;;;;;4975194;28;20046;-73
2022/05/21 01:56:53;;;;;;;31.63;19.10;;;10.90;99.90;;;;;;4975100;28;20043;-72
2022/05/21 01:59:18;;;;;;;31.27;18.15;;;10.90;99.90;;;;;;4975618;28;20057;-73
2022/05/21 02:01:44;;;;;;;30.40;19.17;;;10.90;99.90;;;;;;4975076;28;20443;-73
2022/05/21 02:04:10;;;;;;;30.20;19.10;;;11.00;99.90;;;;;;4975523;28;20051;-73
2022/05/21 02:06:35;;;;;;;33.45;19.60;;;11.00;99.90;;;;;;4973865;28;20043;-73
2022/05/21 02:09:01;;;;;;;33.75;18.40;;;11.00;99.90;;;;;;4974805;28;20066;-72
2022/05/21 02:11:27;;;;;;;34.00;20.27;;;11.10;99.90;;;;;;4974952;28;20492;-72
2022/05/21 02:13:52;;;;;;;34.47;22.38;;;11.10;99.90;;;;;;4975227;28;20102;-72
2022/05/21 02:16:18;;;;;;;33.40;21.25;;;11.10;99.90;;;;;;4975421;28;20086;-73
2022/05/21 02:18:44;;;;;;;38.72;22.75;;;11.10;99.90;;;;;;4975488;28;20072;-72
2022/05/21 02:21:10;;;;;;;37.72;22.77;;;11.30;99.90;;;;;;4974822;28;20090;-73
2022/05/21 02:23:35;;;;;;;37.65;22.58;;;11.10;99.90;;;;;;4957732;28;20050;-73
2022/05/21 02:26:01;;;;;;;36.13;21.50;;;11.10;99.90;;;;;;4975113;28;20420;-74
2022/05/21 02:28:28;;;;;;;36.70;21.67;;;11.10;99.90;;;;;;4974911;28;20129;-73
2022/05/21 02:30:54;;;;;;;37.15;23.30;;;11.30;99.90;;;;;;4974701;28;20054;-73
2022/05/21 02:33:21;;;;;;;41.22;23.70;;;11.20;99.90;;;;;;4974130;28;20046;-72
2022/05/21 02:35:46;;;;;;;39.17;23.23;;;11.20;99.90;;;;;;4974931;28;20118;-73
2022/05/21 02:40:56;;;;;;;36.90;22.98;;;11.20;99.90;;;;;;4975188;28;20137;-72
2022/05/21 02:43:22;;;;;;;41.67;23.23;;;11.20;99.90;;;;;;4974999;28;20130;-72
2022/05/21 02:45:48;;;;;;;36.97;22.95;;;11.30;99.90;;;;;;4975638;28;20082;-73
2022/05/21 02:48:14;;;;;;;34.55;21.60;;;11.30;99.90;;;;;;4975441;28;20046;-72
2022/05/21 02:50:41;;;;;;;37.13;22.15;;;11.30;99.90;;;;;;4974572;28;20058;-73
2022/05/21 02:53:14;;;;;;;38.78;25.58;;;11.30;99.90;;;;;;4974574;28;20047;-73
2022/05/21 02:55:40;;;;;;;35.78;23.83;;;11.40;99.90;;;;;;4974520;28;20043;-73
2022/05/21 02:58:07;;;;;;;33.00;20.33;;;11.40;99.90;;;;;;4974939;28;20134;-73
2022/05/21 03:00:34;;;;;;;34.75;21.33;;;11.40;99.90;;;;;;4974392;28;20067;-73
2022/05/21 03:03:00;;;;;;;31.50;20.42;;;11.40;99.90;;;;;;4973432;28;20082;-73
2022/05/21 03:05:29;;;;;;;34.60;21.05;;;11.40;99.90;;;;;;4973248;28;20047;-73
2022/05/21 03:07:55;;;;;;;34.90;20.58;;;11.40;99.90;;;;;;4974206;28;20051;-73
2022/05/21 03:10:27;;;;;;;31.40;19.52;;;11.40;99.90;;;;;;4974939;28;20547;-73
2022/05/21 03:13:02;;;;;;;34.22;23.33;;;11.50;99.90;;;;;;4977828;28;20050;-73
2022/05/21 03:15:36;;;;;;;34.15;21.73;;;11.50;99.90;;;;;;4978100;28;20506;-73
2022/05/21 03:18:08;;;;;;;34.17;22.08;;;11.50;99.90;;;;;;4978028;28;20050;-73
2022/05/21 03:20:34;;;;;;;32.92;19.58;;;11.60;99.90;;;;;;4978149;28;20061;-73
2022/05/21 03:23:00;;;;;;;33.67;20.23;;;11.60;99.90;;;;;;4977722;28;20051;-73
2022/05/21 03:25:26;;;;;;;33.05;18.60;;;11.50;99.90;;;;;;4977798;28;20057;-73
2022/05/21 03:27:53;;;;;;;30.13;18.58;;;11.50;99.90;;;;;;4978325;28;20055;-73
2022/05/21 03:30:22;;;;;;;36.30;19.98;;;11.50;99.90;;;;;;4977640;28;20367;-73
2022/05/21 03:32:48;;;;;;;30.23;18.52;;;11.60;99.90;;;;;;4978545;28;20057;-72
2022/05/21 03:35:16;;;;;;;29.67;18.45;;;11.70;99.90;;;;;;4977733;28;20129;-72
2022/05/21 03:37:42;;;;;;;29.27;18.55;;;11.60;99.90;;;;;;4977661;28;20058;-73
2022/05/21 03:40:11;;;;;;;31.58;17.55;;;11.60;99.90;;;;;;4977692;28;20120;-73
2022/05/21 03:42:37;;;;;;;32.50;17.35;;;11.60;99.90;;;;;;4977653;28;20081;-73
2022/05/21 03:45:05;;;;;;;27.50;16.80;;;11.60;99.90;;;;;;4978039;28;20050;-73
2022/05/21 03:47:30;;;;;;;28.98;17.60;;;11.70;99.90;;;;;;4977558;28;20050;-73
2022/05/21 03:49:56;;;;;;;29.30;16.40;;;11.70;99.90;;;;;;4978325;28;20591;-73
2022/05/21 03:52:22;;;;;;;27.02;17.42;;;11.70;99.90;;;;;;4977297;28;20053;-73
2022/05/21 03:54:47;;;;;;;29.73;16.40;;;11.70;99.90;;;;;;4977701;28;20045;-73
2022/05/21 03:57:15;;;;;;;28.40;16.02;;;11.70;99.90;;;;;;4976177;28;20525;-73
2022/05/21 03:59:42;;;;;;;28.75;16.00;;;11.70;99.90;;;;;;4977369;28;20061;-74
2022/05/21 04:02:07;;;;;;;26.65;15.10;;;11.70;99.90;;;;;;4977300;28;20498;-74
2022/05/21 04:04:33;;;;;;;25.20;14.02;;;11.80;99.90;;;;;;4977759;28;20051;-73
2022/05/21 04:06:59;;;;;;;24.48;14.77;;;11.80;99.90;;;;;;4977285;28;20487;-73
2022/05/21 04:09:28;;;;;;;23.48;14.02;;;11.80;99.90;;;;;;4977278;28;20069;-73
2022/05/21 04:11:55;;;;;;;26.33;13.70;;;11.80;99.90;;;;;;4977497;28;20049;-73
2022/05/21 04:14:21;;;;;;;23.33;13.82;;;11.90;99.90;;;;;;4977028;28;20051;-73
2022/05/21 04:16:47;;;;;;;24.55;14.02;;;11.90;99.90;;;;;;4977288;28;20049;-73
2022/05/21 04:19:12;;;;;;;21.55;12.75;;;11.90;99.90;;;;;;4977028;28;20455;-73
2022/05/21 04:21:38;;;;;;;21.38;12.05;;;12.00;99.90;;;;;;4977136;28;20086;-73
2022/05/21 04:24:04;;;;;;;22.45;12.35;;;12.00;99.90;;;;;;4977015;28;20480;-73
2022/05/21 04:26:30;;;;;;;20.30;12.75;;;12.00;99.90;;;;;;4975657;28;20174;-73
2022/05/21 04:28:56;;;;;;;20.50;12.45;;;12.00;99.90;;;;;;4975920;28;20503;-73
2022/05/21 04:31:21;;;;;;;18.30;13.10;;;12.10;99.90;;;;;;4975674;28;20054;-73
2022/05/21 04:33:47;;;;;;;21.92;12.13;;;12.10;99.90;;;;;;4976079;28;20047;-73
2022/05/21 04:36:18;;;;;;;18.38;11.10;;;12.10;99.90;;;;;;4976723;28;20082;-73
2022/05/21 04:38:46;;;;;;;19.25;12.07;;;12.10;99.90;;;;;;4976715;28;20050;-73
2022/05/21 04:41:12;;;;;;;20.10;11.48;;;12.10;99.90;;;;;;4977610;28;20130;-73
2022/05/21 04:43:37;;;;;;;19.80;11.23;;;12.10;99.90;;;;;;4976547;28;20496;-72
2022/05/21 04:46:04;;;;;;;17.13;11.15;;;12.10;99.90;;;;;;4976458;28;20045;-73
2022/05/21 04:48:30;;;;;;;23.05;11.32;;;12.10;99.90;;;;;;4975578;28;20061;-73
2022/05/21 04:50:59;;;;;;;20.02;11.27;;;12.10;99.90;;;;;;4976734;28;20054;-73
2022/05/21 04:53:25;;;;;;;18.52;11.50;;;12.20;99.90;;;;;;4976887;28;20419;-74
2022/05/21 04:55:50;;;;;;;18.23;10.18;;;12.20;99.90;;;;;;4976191;28;20085;-74
2022/05/21 04:58:16;;;;;;;18.05;10.07;;;12.20;99.90;;;;;;4976197;28;20130;-73
2022/05/21 05:00:42;;;;;;;17.90;10.93;;;12.20;99.90;;;;;;4975765;28;20043;-73
2022/05/21 05:03:12;;;;;;;17.73;10.02;;;12.20;99.90;;;;;;4976219;28;20133;-74
2022/05/21 05:05:42;;;;;;;17.45;9.98;;;12.20;99.90;;;;;;4975223;28;20129;-73
2022/05/21 05:08:08;;;;;;;15.77;9.48;;;12.30;99.90;;;;;;4976874;28;20379;-73
2022/05/21 05:10:36;;;;;;;18.13;10.55;;;12.30;99.90;;;;;;4976164;28;20078;-74
2022/05/21 05:13:03;;;;;;;15.52;9.55;;;12.20;99.90;;;;;;4976004;28;20055;-74
2022/05/21 05:15:28;;;;;;;16.98;9.48;;;12.30;99.90;;;;;;4975988;28;20043;-73
2022/05/21 05:18:02;;;;;;;18.13;9.50;;;12.30;99.90;;;;;;4975927;28;20074;-73
2022/05/21 05:20:28;;;;;;;18.40;8.82;;;12.40;99.90;;;;;;4975957;28;20089;-73
2022/05/21 05:22:53;;;;;;;17.73;8.80;;;12.40;99.90;;;;;;4975806;28;20086;-73
2022/05/21 05:25:19;;;;;;;19.80;8.10;;;12.40;99.90;;;;;;4975411;28;20051;-73
2022/05/21 05:27:49;;;;;;;15.00;7.45;;;12.40;99.90;;;;;;4975727;28;20058;-73
2022/05/21 05:30:16;;;;;;;16.08;6.55;;;12.50;99.90;;;;;;4975706;28;20054;-73
2022/05/21 05:32:42;;;;;;;14.25;6.90;;;12.50;99.90;;;;;;4974683;28;20050;-74
2022/05/21 05:35:09;;;;;;;15.63;5.80;;;12.60;99.90;;;;;;4975127;28;20046;-73
2022/05/21 05:37:35;;;;;;;11.02;5.00;;;12.70;99.90;;;;;;4975567;28;20081;-74
2022/05/21 05:40:01;;;;;;;10.00;4.28;;;12.70;99.90;;;;;;4975350;28;20054;-73
2022/05/21 05:42:26;;;;;;;11.75;4.43;;;12.80;99.90;;;;;;4975484;28;20051;-73
2022/05/21 05:44:52;;;;;;;12.00;3.80;;;12.90;99.90;;;;;;4975349;28;20046;-73
2022/05/21 05:47:18;;;;;;;9.68;3.53;;;13.00;99.90;;;;;;4974385;28;20046;-73
2022/05/21 05:49:44;;;;;;;11.52;4.13;;;13.10;99.90;;;;;;4976017;28;20058;-73
2022/05/21 05:52:09;;;;;;;12.10;3.97;;;13.10;99.90;;;;;;4975310;28;20138;-73
2022/05/21 05:54:36;;;;;;;6.13;3.08;;;13.30;99.90;;;;;;4975294;28;20443;-73
2022/05/21 05:57:07;;;;;;;8.27;2.95;;;13.30;99.90;;;;;;4975233;28;20462;-74
2022/05/21 05:59:51;;;;;;;9.13;3.17;;;13.40;99.90;;;;;;4975446;28;20093;-74
2022/05/21 06:05:04;;;;;;;8.88;3.33;;;13.80;99.90;;;;;;4975065;28;20070;-73
2022/05/21 06:07:30;;;;;;;10.65;3.13;;;13.50;99.90;;;;;;4975008;28;20475;-73
2022/05/21 06:10:17;;;;;;;10.45;2.60;;;13.50;99.90;;;;;;4973346;28;20061;-72
2022/05/21 06:12:43;;;;;;;9.90;2.85;;;13.50;99.90;;;;;;4974500;28;20050;-73
2022/05/21 06:15:11;;;;;;;12.95;3.33;;;13.50;99.90;;;;;;4974895;28;20039;-73
2022/05/21 06:17:37;;;;;;;9.30;3.08;;;13.60;99.90;;;;;;4973957;28;20455;-73
2022/05/21 06:20:06;;;;;;;6.43;2.50;;;13.70;99.90;;;;;;4975335;28;20054;-73
2022/05/21 06:22:32;;;;;;;12.02;3.03;;;13.70;99.90;;;;;;4974034;28;20487;-74
2022/05/21 06:25:01;;;;;;;7.90;3.00;;;13.80;99.90;;;;;;4974943;28;20058;-74
2022/05/21 06:27:28;;;;;;;7.97;3.55;;;13.70;99.90;;;;;;4974428;28;20488;-73
2022/05/21 06:29:53;;;;;;;8.60;2.67;;;13.60;99.90;;;;;;4974461;28;20563;-73
2022/05/21 06:32:19;;;;;;;8.60;3.35;;;13.60;99.90;;;;;;4974924;28;20050;-73
2022/05/21 06:34:45;;;;;;;8.35;2.55;;;13.60;99.90;;;;;;4974395;28;20089;-74
2022/05/21 06:37:12;;;;;;;8.75;2.90;;;13.70;99.90;;;;;;4974604;28;20149;-73
2022/05/21 06:39:42;;;;;;;9.02;2.60;;;13.80;99.90;;;;;;4974026;28;20066;-73
2022/05/21 06:42:08;;;;;;;7.57;2.80;;;13.80;99.90;;;;;;4975301;28;20054;-73
2022/05/21 06:44:34;;;;;;;7.05;2.70;;;13.90;99.90;;;;;;4975552;28;20047;-73
2022/05/21 06:47:00;;;;;;;5.15;2.78;;;13.90;99.90;;;;;;4974405;28;20057;-71
2022/05/21 06:49:29;;;;;;;8.77;2.70;;;13.90;99.90;;;;;;4975688;28;20051;-77
2022/05/21 06:51:56;;;;;;;6.75;2.38;;;14.00;99.90;;;;;;4973534;28;20133;-75
2022/05/21 06:54:23;;;;;;;7.20;2.72;;;14.10;99.90;;;;;;4974740;28;20078;-76
2022/05/21 06:56:50;;;;;;;4.85;2.50;;;14.30;99.90;;;;;;4974995;28;20130;-76
2022/05/21 06:59:16;;;;;;;7.40;2.80;;;14.30;99.90;;;;;;4974215;28;20373;-76
2022/05/21 07:01:42;;;;;;;5.40;2.70;;;14.20;99.90;;;;;;4974422;28;20502;-75
2022/05/21 07:04:09;;;;;;;7.95;2.70;;;14.10;99.90;;;;;;4974409;28;20046;-76
2022/05/21 07:09:21;;;;;;;8.00;2.80;;;14.20;99.90;;;;;;4975046;28;20511;-76
2022/05/21 07:11:51;;;;;;;6.72;3.03;;;14.30;99.90;;;;;;4973714;28;20134;-75
2022/05/21 07:14:18;;;;;;;7.38;2.85;;;14.50;99.90;;;;;;4974533;28;20046;-75
2022/05/21 07:16:44;;;;;;;8.77;3.25;;;14.50;99.90;;;;;;4973574;28;20102;-75
2022/05/21 07:19:10;;;;;;;9.15;2.90;;;14.60;99.90;;;;;;4974133;28;20050;-76
2022/05/21 07:21:36;;;;;;;8.80;2.58;;;14.50;99.90;;;;;;4973096;28;20053;-76
2022/05/21 07:24:02;;;;;;;6.75;2.20;;;14.40;99.90;;;;;;4974134;28;20046;-76
2022/05/21 07:26:28;;;;;;;5.75;3.22;;;14.40;99.90;;;;;;4974066;28;20054;-76
2022/05/21 07:28:54;;;;;;;8.55;2.72;;;14.30;99.90;;;;;;4974975;28;20384;-74
2022/05/21 07:31:20;;;;;;;5.78;2.35;;;14.30;99.90;;;;;;4974583;28;20046;-75
2022/05/21 07:33:45;;;;;;;7.07;2.40;;;14.40;99.90;;;;;;4974594;28;20101;-76
2022/05/21 07:36:11;;;;;;;8.27;2.10;;;14.60;99.90;;;;;;4974084;28;20042;-75
2022/05/21 07:38:37;;;;;;;4.40;2.22;;;14.90;99.90;;;;;;4973616;28;20101;-76
2022/05/21 07:41:03;;;;;;;5.70;2.33;;;14.90;99.90;;;;;;4973075;28;20054;-75
2022/05/21 07:43:30;;;;;;;5.32;2.55;;;15.00;99.90;;;;;;4972612;28;20137;-75
2022/05/21 07:46:00;;;;;;;6.40;2.72;;;15.00;99.90;;;;;;4972776;28;20098;-76
2022/05/21 07:48:27;;;;;;;7.45;3.05;;;15.00;99.90;;;;;;4957400;28;20047;-75
2022/05/21 07:50:56;;;;;;;6.90;2.83;;;15.10;99.90;;;;;;4974419;28;20049;-76
2022/05/21 07:53:25;;;;;;;5.03;2.50;;;15.10;99.90;;;;;;4973623;28;20129;-75
2022/05/21 07:55:52;;;;;;;6.82;2.53;;;15.20;99.90;;;;;;4974153;28;20050;-76
2022/05/21 07:58:19;;;;;;;5.40;2.17;;;15.30;99.90;;;;;;4975825;28;20117;-75
2022/05/21 08:00:45;;;;;;;7.25;2.53;;;15.30;99.90;;;;;;4977497;28;20383;-81
2022/05/21 08:03:11;;;;;;;7.60;2.80;;;15.30;99.90;;;;;;4977143;28;20051;-74
2022/05/21 08:05:38;;;;;;;6.93;2.85;;;15.30;99.90;;;;;;4976634;28;20042;-74
2022/05/21 08:08:05;;;;;;;7.85;2.47;;;15.30;99.90;;;;;;4975980;28;20073;-74
2022/05/21 08:10:31;;;;;;;6.47;2.25;;;15.20;99.90;;;;;;4977404;28;20067;-74
2022/05/21 08:12:58;;;;;;;5.38;2.05;;;14.90;99.90;;;;;;4977139;28;20126;-73
2022/05/21 08:15:24;;;;;;;6.28;2.60;;;14.60;99.90;;;;;;4976977;28;20047;-74
2022/05/21 08:17:49;;;;;;;6.03;2.38;;;14.50;99.90;;;;;;4976366;28;20166;-74
2022/05/21 08:20:16;;;;;;;5.50;2.38;;;14.40;99.90;;;;;;4977502;28;20106;-74
2022/05/21 08:28:15;;;;;;;7.47;2.25;;;14.30;99.90;;;;;;4976770;28;20050;-74
2022/05/21 08:30:45;;;;;;;4.43;2.10;;;14.40;99.90;;;;;;4975545;28;20133;-74
2022/05/21 08:33:12;;;;;;;6.07;2.00;;;14.60;99.90;;;;;;4977241;28;20046;-74
2022/05/21 08:35:39;;;;;;;4.00;1.80;;;14.80;99.90;;;;;;4975504;28;20046;-75
2022/05/21 08:38:06;;;;;;;5.88;2.10;;;15.10;99.90;;;;;;4977073;28;20087;-73
2022/05/21 08:41:03;;;;;;;4.68;1.80;;;15.30;99.90;;;;;;4976444;28;20058;-75
2022/05/21 08:43:34;;;;;;;5.88;1.65;;;15.20;99.90;;;;;;4942355;28;20066;-73
2022/05/21 08:46:35;;;;;;;5.15;1.90;;;15.10;99.90;;;;;;4976453;28;20050;-74
2022/05/21 08:49:06;;;;;;;5.05;1.70;;;15.10;99.90;;;;;;4976507;28;20498;-75
2022/05/21 08:51:54;;;;;;;5.63;1.77;;;15.20;99.90;;;;;;4977159;28;20081;-74
2022/05/21 08:54:29;;;;;;;4.80;1.50;;;15.30;99.90;;;;;;4975706;28;20078;-76
2022/05/21 08:56:56;;;;;;;5.53;2.08;;;15.50;99.90;;;;;;4976367;28;20049;-75
2022/05/21 08:59:29;;;;;;;5.00;1.80;;;15.50;99.90;;;;;;4975209;28;20043;-77
2022/05/21 09:01:54;;;;;;;6.82;1.60;;;15.60;99.90;;;;;;4976066;28;20054;-76
2022/05/21 09:04:23;;;;;;;5.57;1.80;;;15.60;99.90;;;;;;4975234;28;20054;-74
2022/05/21 09:07:08;;;;;;;5.32;2.03;;;15.50;99.90;;;;;;4974783;28;20105;-75
2022/05/21 09:09:48;;;;;;;4.75;1.70;;;15.40;99.90;;;;;;4976069;28;20383;-73
2022/05/21 09:12:19;;;;;;;5.70;1.58;;;15.40;99.90;;;;;;4977054;28;20105;-74
2022/05/21 09:14:47;;;;;;;4.18;1.73;;;15.40;99.90;;;;;;4976073;28;20047;-74
2022/05/21 09:17:19;;;;;;;7.35;2.13;;;15.30;99.90;;;;;;4975871;28;20047;-74
2022/05/21 09:19:55;;;;;;;6.95;1.88;;;15.20;99.90;;;;;;4975983;28;20065;-76
2022/05/21 09:22:21;;;;;;;7.13;2.10;;;15.10;99.90;;;;;;4975807;28;20047;-75
2022/05/21 09:24:58;;;;;;;5.85;1.80;;;15.30;99.90;;;;;;4975636;28;20050;-75
2022/05/21 09:27:36;;;;;;;5.72;2.92;;;15.30;99.90;;;;;;4976575;28;20054;-75
2022/05/21 09:30:25;;;;;;;5.65;2.17;;;15.50;99.90;;;;;;4975718;28;20066;-74
2022/05/21 09:32:57;;;;;;;3.72;1.60;;;15.90;99.90;;;;;;4976146;28;20408;-76
2022/05/21 09:35:43;;;;;;;5.40;1.65;;;16.10;99.90;;;;;;4974622;28;20464;-74
2022/05/21 09:38:14;;;;;;;5.72;1.52;;;16.30;99.90;;;;;;4975333;28;20047;-74
2022/05/21 09:40:41;;;;;;;4.30;1.35;;;16.20;99.90;;;;;;4975433;28;20061;-74
2022/05/21 09:46:19;;;;;;;5.25;2.63;;;15.80;99.90;;;;;;4976115;28;20097;-74
2022/05/21 09:48:46;;;;;;;3.90;1.40;;;15.70;99.90;;;;;;4975373;28;20057;-73
2022/05/21 09:51:29;;;;;;;5.53;1.58;;;15.80;99.90;;;;;;4975536;28;20050;-74
2022/05/21 09:53:55;;;;;;;7.30;1.80;;;15.70;99.90;;;;;;4991371;28;20372;-72
2022/05/21 09:56:52;;;;;;;6.60;1.65;;;15.70;99.90;;;;;;4974482;28;20047;-75
2022/05/21 09:59:21;;;;;;;4.82;1.50;;;15.70;99.90;;;;;;4975627;28;20082;-77
2022/05/21 10:01:50;;;;;;;3.50;1.52;;;15.70;99.90;;;;;;4975283;28;20134;-76
2022/05/21 10:04:34;;;;;;;4.13;1.35;;;15.90;99.90;;;;;;4974225;28;20113;-76
2022/05/21 10:10:58;;;;;;;4.28;1.50;;;16.20;99.90;;;;;;4974183;28;20049;-76
2022/05/21 10:12:48;;;;;;;4.13;1.83;;;16.00;99.90;;;;;;4975751;28;20116;-76
2022/05/21 10:15:21;;;;;;;5.20;1.80;;;15.80;99.90;;;;;;4975432;28;20438;-75
2022/05/21 10:17:53;;;;;;;3.70;1.30;;;15.70;99.90;;;;;;4975942;28;20281;-76
2022/05/21 10:20:26;;;;;;;6.50;1.60;;;15.70;99.90;;;;;;4973646;28;20057;-73
2022/05/21 10:23:34;;;;;;;4.50;1.77;;;15.80;99.90;;;;;;4974538;28;20488;-73
2022/05/21 10:26:41;;;;;;;5.90;2.15;;;16.20;99.90;;;;;;4974864;28;20043;-72
2022/05/21 10:29:28;;;;;;;6.43;2.10;;;16.30;99.90;;;;;;4922201;28;20062;-72
2022/05/21 10:32:23;;;;;;;6.10;1.52;;;16.20;99.90;;;;;;4975493;28;20345;-74
2022/05/21 10:35:17;;;;;;;5.28;1.75;;;16.10;99.90;;;;;;4974599;28;20054;-73
2022/05/21 10:38:04;;;;;;;7.93;1.60;;;16.20;99.90;;;;;;4974689;28;20097;-73
2022/05/21 10:40:36;;;;;;;;;;;16.40;99.90;;;;;;4976999;28;20042;-75
2022/05/21 10:43:38;;;;;;;2.85;1.05;;;16.50;99.90;;;;;;4975101;28;19925;-73
2022/05/21 10:46:42;;;;;;;4.95;1.85;;;16.50;99.90;;;;;;4974888;28;20093;-74
2022/05/21 10:49:32;;;;;;;3.63;1.13;;;16.30;99.90;;;;;;4974096;28;20432;-75
2022/05/21 10:52:21;;;;;;;4.03;1.25;;;15.90;99.90;;;;;;4974583;28;20051;-73
2022/05/21 10:55:09;;;;;;;8.23;2.25;;;15.80;99.90;;;;;;4974560;28;20053;-74
2022/05/21 10:57:38;;;;;;;5.47;1.25;;;15.70;99.90;;;;;;4989805;28;20063;-75
2022/05/21 11:00:04;;;;;;;5.35;1.30;;;15.70;99.90;;;;;;4974669;28;20043;-73
2022/05/21 11:02:39;;;;;;;4.35;1.35;;;15.90;99.90;;;;;;4974380;28;20174;-74
2022/05/21 11:05:43;;;;;;;4.95;1.40;;;16.20;99.90;;;;;;4973393;28;20138;-74
2022/05/21 11:08:08;;;;;;;5.05;1.50;;;16.50;99.90;;;;;;4973805;28;20042;-77
2022/05/21 11:10:57;;;;;;;4.93;1.42;;;16.70;99.90;;;;;;4973662;28;20066;-76
2022/05/21 11:13:35;;;;;;;4.88;1.25;;;16.90;99.90;;;;;;4974117;28;20054;-76
2022/05/21 11:16:12;;;;;;;6.43;1.65;;;16.70;99.90;;;;;;4974994;28;20097;-73
2022/05/21 11:19:10;;;;;;;3.80;1.25;;;16.70;99.90;;;;;;4974721;28;20046;-75
2022/05/21 11:21:46;;;;;;;3.72;1.05;;;16.70;99.90;;;;;;4964020;28;20059;-73
2022/05/21 11:24:53;;;;;;;4.60;1.30;;;16.80;99.90;;;;;;4974893;28;20062;-72
2022/05/21 11:27:25;;;;;;;6.28;1.58;;;17.00;99.90;;;;;;4898849;29;20059;-73
2022/05/21 11:29:56;;;;;;;4.07;1.25;;;17.00;99.90;;;;;;4914739;29;20165;-75
2022/05/21 11:38:40;;;;;;;3.55;0.90;;;16.40;99.90;;;;;;4976717;28;20059;-75
2022/05/21 11:41:29;;;;;;;3.40;1.00;;;16.30;99.90;;;;;;4974856;28;20097;-74
2022/05/21 11:44:55;;;;;;;3.80;1.02;;;16.40;99.90;;;;;;4977783;28;20049;-76
2022/05/21 11:46:44;;;;;;;3.40;1.02;;;16.70;99.90;;;;;;4977463;28;20051;-74
2022/05/21 11:49:37;;;;;;;4.47;1.00;;;16.80;99.90;;;;;;4976439;28;20186;-74
2022/05/21 11:52:28;;;;;;;4.55;1.00;;;16.90;99.90;;;;;;4976925;28;20053;-76
2022/05/21 11:54:53;;;;;;;1.67;0.73;;;16.90;99.90;;;;;;4977436;28;20043;-74
2022/05/21 11:57:28;;;;;;;3.45;0.88;;;16.80;99.90;;;;;;4977590;28;20047;-73
2022/05/21 11:59:54;;;;;;;3.72;0.90;;;16.70;99.90;;;;;;4976144;28;20105;-73
2022/05/21 12:02:24;;;;;;;3.45;1.08;;;16.70;99.90;;;;;;4976350;28;20042;-75
2022/05/21 12:04:55;;;;;;;2.50;1.00;;;16.80;99.90;;;;;;4977493;28;20058;-72
2022/05/21 12:07:43;;;;;;;2.85;1.00;;;17.00;99.90;;;;;;4976822;28;20122;-72
2022/05/21 12:10:51;;;;;;;4.35;1.05;;;17.20;99.90;;;;;;4977648;28;20059;-72
2022/05/21 12:13:20;;;;;;;3.03;0.73;;;17.40;99.90;;;;;;4976630;28;20046;-70
2022/05/21 12:15:50;;;;;;;3.50;0.80;;;17.30;99.90;;;;;;4976452;28;20047;-70
2022/05/21 12:18:34;;;;;;;2.22;0.77;;;17.10;99.90;;;;;;4978050;28;20051;-74
2022/05/21 12:21:00;;;;;;;2.78;0.98;;;16.80;99.90;;;;;;4976921;28;20050;-72
2022/05/21 12:23:26;;;;;;;2.22;1.02;;;16.60;99.90;;;;;;4976900;28;20054;-72
2022/05/21 12:26:00;;;;;;;2.15;0.90;;;16.50;99.90;;;;;;4977237;28;20047;-70
2022/05/21 12:28:38;;;;;;;4.03;1.20;;;16.60;99.90;;;;;;4976055;28;20050;-73
2022/05/21 12:31:21;;;;;;;4.50;1.05;;;16.80;99.90;;;;;;4976269;28;20372;-75
2022/05/21 12:34:12;;;;;;;2.20;1.23;;;17.00;99.90;;;;;;4975843;28;20046;-74
2022/05/21 12:37:09;;;;;;;2.55;1.00;;;17.10;99.90;;;;;;4976928;28;20043;-75
2022/05/21 12:39:55;;;;;;;4.22;1.30;;;17.00;99.90;;;;;;4977023;28;20054;-73
2022/05/21 12:42:43;;;;;;;5.95;1.50;;;17.20;99.90;;;;;;4976257;28;20495;-73
2022/05/21 12:45:11;;;;;;;3.33;0.98;;;17.30;99.90;;;;;;4975011;28;20039;-72
2022/05/21 12:47:42;;;;;;;3.28;1.10;;;17.40;99.90;;;;;;4976508;28;20050;-71
2022/05/21 12:50:22;;;;;;;3.17;1.00;;;17.20;99.90;;;;;;4977272;28;20050;-72
2022/05/21 12:52:55;;;;;;;5.47;1.52;;;17.10;99.90;;;;;;4976363;28;20047;-72
2022/05/21 12:55:25;;;;;;;3.55;1.25;;;17.00;99.90;;;;;;4975694;28;20051;-71
2022/05/21 12:57:54;;;;;;;3.17;1.00;;;17.00;99.90;;;;;;4976286;28;20062;-72
2022/05/21 13:00:22;;;;;;;4.40;1.40;;;16.90;99.90;;;;;;4976579;28;20051;-72
2022/05/21 13:02:51;;;;;;;5.65;1.65;;;17.00;99.90;;;;;;4976102;28;20082;-72
2022/05/21 13:05:23;;;;;;;2.88;1.08;;;17.20;99.90;;;;;;4975370;28;20080;-73
2022/05/21 13:07:51;;;;;;;2.78;1.25;;;17.40;99.90;;;;;;4976137;28;20089;-72
2022/05/21 13:10:24;;;;;;;2.38;1.13;;;17.40;99.90;;;;;;4976565;28;20410;-73
2022/05/21 13:13:04;;;;;;;3.33;1.00;;;17.20;99.90;;;;;;4975364;28;20059;-70
2022/05/21 13:16:05;;;;;;;3.95;1.35;;;17.20;99.90;;;;;;4976498;28;20039;-71
2022/05/21 13:18:52;;;;;;;4.97;1.50;;;17.50;99.90;;;;;;4973074;28;20063;-72
2022/05/21 13:21:56;;;;;;;4.55;1.55;;;17.60;99.90;;;;;;4975800;28;20046;-72
2022/05/21 13:24:41;;;;;;;3.67;1.30;;;17.70;99.90;;;;;;4975776;28;20050;-70